world map with DPS marked

DPS - Airport

This information may not be accurate or current and is not valid for navigation or flight planning. No warranty of fitness for any purpose is made or implied.

flag of Baliflag of Indonesia

Donate via PayPal

Additional information is available on the NEW Great Circle Mapper

Location
City:  Denpasar, Bali, Indonesia
Name:Ngurah Rai - Bali International Airport
ICAO / IATA:WADD / DPS

Details
Type:Airport (Aerodrome, Airfield)
Use:Public/Civil
Latitude:8°44'53"S (-8.748168)
Longitude:115°10'02"E (115.167172)
Datum:WGS 1984
Elevation:14 ft (4 m)
Runways:1
Longest:9790 × 148 ft (2984 × 45 m)

Time
Timezone:UTC+8 (DST+10)
Local Time:

Weather
METAR:WADD  172230Z 28003KT 200V330 6000 VCSH FEW011 FEW013CB 26/24 Q1008 NOSIG RMK CB IN CLIMB OUT
TAF:WADD  (expired)

Related Locations
Nearby:
Farthest:SOM: 12398 mi / 19952 km
San Tomé, B, VE

Find:

   beyond  
but within

Other Information
Maps:
Sources:

  


 


Great Circle Mapper   Great Circle Mapper
Great Circle Mapper FAQ   Great Circle Mapper FAQ
  Karl's Home Page
KLS˛   KLS˛ Home
   GC on Facebook
Airlines of the World   Airlines of the World
Donate via PayPal


Copyright © 2004-2017, Karl L. Swartz. All rights reserved.
All trademarks mentioned herein belong to their respective owners.

Please see credits for attribution and copyright information.

Karl Swartz <karl@kls2.com>
  Powered by FreeBSD
Valid HTML 4.01!
Labeled with ICRA
hCard Microformat
Geo Microformat